sensor_id;sensor_type;location;lat;lon;timestamp;P1;P2;P0
47808;PMS5003;33573;38.790;-77.084;2023-11-21T00:02:07;2;2;
47808;PMS5003;33573;38.790;-77.084;2023-11-21T00:04:32;4;4;
47808;PMS5003;33573;38.790;-77.084;2023-11-21T00:06:58;3;3;
47808;PMS5003;33573;38.790;-77.084;2023-11-21T00:09:23;3;3;
47808;PMS5003;33573;38.790;-77.084;2023-11-21T00:11:49;7;3;
47808;PMS5003;33573;38.790;-77.084;2023-11-21T00:14:14;4;4;
47808;PMS5003;33573;38.790;-77.084;2023-11-21T00:16:40;3;2;
47808;PMS5003;33573;38.790;-77.084;2023-11-21T00:19:05;2;2;
47808;PMS5003;33573;38.790;-77.084;2023-11-21T00:21:30;2;1;
47808;PMS5003;33573;38.790;-77.084;2023-11-21T00:23:56;5;3;
47808;PMS5003;33573;38.790;-77.084;2023-11-21T00:26:21;2;2;
47808;PMS5003;33573;38.790;-77.084;2023-11-21T00:28:47;3;3;
47808;PMS5003;33573;38.790;-77.084;2023-11-21T00:31:12;2;2;
47808;PMS5003;33573;38.790;-77.084;2023-11-21T00:33:38;3;3;
47808;PMS5003;33573;38.790;-77.084;2023-11-21T00:36:03;3;3;
47808;PMS5003;33573;38.790;-77.084;2023-11-21T00:38:29;2;2;
47808;PMS5003;33573;38.790;-77.084;2023-11-21T00:40:54;4;4;
47808;PMS5003;33573;38.790;-77.084;2023-11-21T00:43:19;3;3;
47808;PMS5003;33573;38.790;-77.084;2023-11-21T00:45:45;3;3;
47808;PMS5003;33573;38.790;-77.084;2023-11-21T00:48:10;3;3;
47808;PMS5003;33573;38.790;-77.084;2023-11-21T00:50:36;2;2;
47808;PMS5003;33573;38.790;-77.084;2023-11-21T00:53:01;2;2;
47808;PMS5003;33573;38.790;-77.084;2023-11-21T00:55:27;3;3;
47808;PMS5003;33573;38.790;-77.084;2023-11-21T00:57:52;3;3;
47808;PMS5003;33573;38.790;-77.084;2023-11-21T01:00:18;4;3;
47808;PMS5003;33573;38.790;-77.084;2023-11-21T01:02:43;3;3;
47808;PMS5003;33573;38.790;-77.084;2023-11-21T01:05:08;2;2;
47808;PMS5003;33573;38.790;-77.084;2023-11-21T01:07:34;3;3;
47808;PMS5003;33573;38.790;-77.084;2023-11-21T01:09:59;4;3;
47808;PMS5003;33573;38.790;-77.084;2023-11-21T01:12:25;5;4;
47808;PMS5003;33573;38.790;-77.084;2023-11-21T01:14:50;6;5;
47808;PMS5003;33573;38.790;-77.084;2023-11-21T01:17:16;4;3;
47808;PMS5003;33573;38.790;-77.084;2023-11-21T01:19:41;3;3;
47808;PMS5003;33573;38.790;-77.084;2023-11-21T01:22:06;5;5;
47808;PMS5003;33573;38.790;-77.084;2023-11-21T01:24:32;5;4;
47808;PMS5003;33573;38.790;-77.084;2023-11-21T01:26:57;5;4;
47808;PMS5003;33573;38.790;-77.084;2023-11-21T01:29:23;2;2;
47808;PMS5003;33573;38.790;-77.084;2023-11-21T01:31:48;4;4;
47808;PMS5003;33573;38.790;-77.084;2023-11-21T01:34:14;5;5;
47808;PMS5003;33573;38.790;-77.084;2023-11-21T01:36:39;5;4;
47808;PMS5003;33573;38.790;-77.084;2023-11-21T01:39:05;6;3;
47808;PMS5003;33573;38.790;-77.084;2023-11-21T01:41:30;3;3;
47808;PMS5003;33573;38.790;-77.084;2023-11-21T01:43:56;4;4;
47808;PMS5003;33573;38.790;-77.084;2023-11-21T01:46:21;7;4;
47808;PMS5003;33573;38.790;-77.084;2023-11-21T01:48:46;5;4;
47808;PMS5003;33573;38.790;-77.084;2023-11-21T01:51:12;6;5;
47808;PMS5003;33573;38.790;-77.084;2023-11-21T01:53:37;5;5;
47808;PMS5003;33573;38.790;-77.084;2023-11-21T01:56:08;5;5;
47808;PMS5003;33573;38.790;-77.084;2023-11-21T01:58:28;5;5;
47808;PMS5003;33573;38.790;-77.084;2023-11-21T02:00:54;6;5;
47808;PMS5003;33573;38.790;-77.084;2023-11-21T02:03:19;5;5;
47808;PMS5003;33573;38.790;-77.084;2023-11-21T02:05:44;4;4;
47808;PMS5003;33573;38.790;-77.084;2023-11-21T02:08:10;5;4;
47808;PMS5003;33573;38.790;-77.084;2023-11-21T02:10:35;6;5;
47808;PMS5003;33573;38.790;-77.084;2023-11-21T02:13:01;5;5;
47808;PMS5003;33573;38.790;-77.084;2023-11-21T02:15:26;8;7;
47808;PMS5003;33573;38.790;-77.084;2023-11-21T02:17:52;6;6;
47808;PMS5003;33573;38.790;-77.084;2023-11-21T02:20:17;7;7;
47808;PMS5003;33573;38.790;-77.084;2023-11-21T02:22:43;5;5;
47808;PMS5003;33573;38.790;-77.084;2023-11-21T02:25:08;6;6;
47808;PMS5003;33573;38.790;-77.084;2023-11-21T02:27:33;5;5;
47808;PMS5003;33573;38.790;-77.084;2023-11-21T02:29:59;5;5;
47808;PMS5003;33573;38.790;-77.084;2023-11-21T02:32:24;4;4;
47808;PMS5003;33573;38.790;-77.084;2023-11-21T02:34:50;4;4;
47808;PMS5003;33573;38.790;-77.084;2023-11-21T02:37:15;6;6;
47808;PMS5003;33573;38.790;-77.084;2023-11-21T02:39:41;6;5;
47808;PMS5003;33573;38.790;-77.084;2023-11-21T02:42:06;6;4;
47808;PMS5003;33573;38.790;-77.084;2023-11-21T02:44:32;6;6;
47808;PMS5003;33573;38.790;-77.084;2023-11-21T02:46:57;4;4;
47808;PMS5003;33573;38.790;-77.084;2023-11-21T02:49:22;5;4;
47808;PMS5003;33573;38.790;-77.084;2023-11-21T02:51:48;6;2;
47808;PMS5003;33573;38.790;-77.084;2023-11-21T02:54:13;5;3;
47808;PMS5003;33573;38.790;-77.084;2023-11-21T02:56:39;3;3;
47808;PMS5003;33573;38.790;-77.084;2023-11-21T02:59:04;4;4;
47808;PMS5003;33573;38.790;-77.084;2023-11-21T03:01:30;5;4;
47808;PMS5003;33573;38.790;-77.084;2023-11-21T03:03:55;6;6;
47808;PMS5003;33573;38.790;-77.084;2023-11-21T03:06:25;5;4;
47808;PMS5003;33573;38.790;-77.084;2023-11-21T03:08:46;4;4;
47808;PMS5003;33573;38.790;-77.084;2023-11-21T03:11:11;4;4;
47808;PMS5003;33573;38.790;-77.084;2023-11-21T03:13:37;3;3;
47808;PMS5003;33573;38.790;-77.084;2023-11-21T03:16:02;3;3;
47808;PMS5003;33573;38.790;-77.084;2023-11-21T03:18:28;4;4;
47808;PMS5003;33573;38.790;-77.084;2023-11-21T03:20:53;3;3;
47808;PMS5003;33573;38.790;-77.084;2023-11-21T03:23:19;3;3;
47808;PMS5003;33573;38.790;-77.084;2023-11-21T03:25:44;3;3;
47808;PMS5003;33573;38.790;-77.084;2023-11-21T03:28:09;3;3;
47808;PMS5003;33573;38.790;-77.084;2023-11-21T03:30:35;3;2;
47808;PMS5003;33573;38.790;-77.084;2023-11-21T03:33:00;4;4;
47808;PMS5003;33573;38.790;-77.084;2023-11-21T03:35:26;4;4;
47808;PMS5003;33573;38.790;-77.084;2023-11-21T03:37:51;3;3;
47808;PMS5003;33573;38.790;-77.084;2023-11-21T03:40:17;3;3;
47808;PMS5003;33573;38.790;-77.084;2023-11-21T03:42:42;3;3;
47808;PMS5003;33573;38.790;-77.084;2023-11-21T03:45:08;3;3;
47808;PMS5003;33573;38.790;-77.084;2023-11-21T03:47:33;4;4;
47808;PMS5003;33573;38.790;-77.084;2023-11-21T03:49:58;4;3;
47808;PMS5003;33573;38.790;-77.084;2023-11-21T03:52:24;3;3;
47808;PMS5003;33573;38.790;-77.084;2023-11-21T03:54:49;6;3;
47808;PMS5003;33573;38.790;-77.084;2023-11-21T03:57:15;5;4;
47808;PMS5003;33573;38.790;-77.084;2023-11-21T03:59:40;3;3;
47808;PMS5003;33573;38.790;-77.084;2023-11-21T04:02:06;5;4;
47808;PMS5003;33573;38.790;-77.084;2023-11-21T04:04:31;5;4;
47808;PMS5003;33573;38.790;-77.084;2023-11-21T04:06:56;4;3;
47808;PMS5003;33573;38.790;-77.084;2023-11-21T04:09:22;3;3;
47808;PMS5003;33573;38.790;-77.084;2023-11-21T04:11:47;3;3;
47808;PMS5003;33573;38.790;-77.084;2023-11-21T04:14:13;3;3;
47808;PMS5003;33573;38.790;-77.084;2023-11-21T04:16:38;2;2;
47808;PMS5003;33573;38.790;-77.084;2023-11-21T04:19:04;3;3;
47808;PMS5003;33573;38.790;-77.084;2023-11-21T04:21:29;4;4;
47808;PMS5003;33573;38.790;-77.084;2023-11-21T04:23:55;2;2;
47808;PMS5003;33573;38.790;-77.084;2023-11-21T04:26:20;3;3;
47808;PMS5003;33573;38.790;-77.084;2023-11-21T04:28:45;3;3;
47808;PMS5003;33573;38.790;-77.084;2023-11-21T04:31:11;6;4;
47808;PMS5003;33573;38.790;-77.084;2023-11-21T04:33:36;4;2;
47808;PMS5003;33573;38.790;-77.084;2023-11-21T04:36:02;3;3;
47808;PMS5003;33573;38.790;-77.084;2023-11-21T04:38:27;6;4;
47808;PMS5003;33573;38.790;-77.084;2023-11-21T04:40:53;5;4;
47808;PMS5003;33573;38.790;-77.084;2023-11-21T04:43:18;3;3;
47808;PMS5003;33573;38.790;-77.084;2023-11-21T04:45:44;5;4;
47808;PMS5003;33573;38.790;-77.084;2023-11-21T04:48:09;5;4;
47808;PMS5003;33573;38.790;-77.084;2023-11-21T04:50:34;4;4;
47808;PMS5003;33573;38.790;-77.084;2023-11-21T04:53:00;4;4;
47808;PMS5003;33573;38.790;-77.084;2023-11-21T04:55:25;4;4;
47808;PMS5003;33573;38.790;-77.084;2023-11-21T04:57:51;4;4;
47808;PMS5003;33573;38.790;-77.084;2023-11-21T05:00:17;6;4;
47808;PMS5003;33573;38.790;-77.084;2023-11-21T05:02:42;4;3;
47808;PMS5003;33573;38.790;-77.084;2023-11-21T05:05:07;5;4;
47808;PMS5003;33573;38.790;-77.084;2023-11-21T05:07:33;4;4;
47808;PMS5003;33573;38.790;-77.084;2023-11-21T05:09:58;5;4;
47808;PMS5003;33573;38.790;-77.084;2023-11-21T05:12:24;5;3;
47808;PMS5003;33573;38.790;-77.084;2023-11-21T05:14:49;4;4;
47808;PMS5003;33573;38.790;-77.084;2023-11-21T05:17:14;4;4;
47808;PMS5003;33573;38.790;-77.084;2023-11-21T05:19:40;6;6;
47808;PMS5003;33573;38.790;-77.084;2023-11-21T05:22:05;4;4;
47808;PMS5003;33573;38.790;-77.084;2023-11-21T05:24:31;4;4;
47808;PMS5003;33573;38.790;-77.084;2023-11-21T05:26:56;5;4;
47808;PMS5003;33573;38.790;-77.084;2023-11-21T05:29:22;4;4;
47808;PMS5003;33573;38.790;-77.084;2023-11-21T05:31:47;4;4;
47808;PMS5003;33573;38.790;-77.084;2023-11-21T05:34:13;5;5;
47808;PMS5003;33573;38.790;-77.084;2023-11-21T05:36:38;6;5;
47808;PMS5003;33573;38.790;-77.084;2023-11-21T05:39:03;6;6;
47808;PMS5003;33573;38.790;-77.084;2023-11-21T05:41:29;7;5;
47808;PMS5003;33573;38.790;-77.084;2023-11-21T05:43:54;7;6;
47808;PMS5003;33573;38.790;-77.084;2023-11-21T05:46:20;7;6;
47808;PMS5003;33573;38.790;-77.084;2023-11-21T05:48:45;4;4;
47808;PMS5003;33573;38.790;-77.084;2023-11-21T05:51:11;5;5;
47808;PMS5003;33573;38.790;-77.084;2023-11-21T05:53:36;3;3;
47808;PMS5003;33573;38.790;-77.084;2023-11-21T05:56:02;7;6;
47808;PMS5003;33573;38.790;-77.084;2023-11-21T05:58:27;5;5;
47808;PMS5003;33573;38.790;-77.084;2023-11-21T06:00:53;3;3;
47808;PMS5003;33573;38.790;-77.084;2023-11-21T06:03:18;6;6;
47808;PMS5003;33573;38.790;-77.084;2023-11-21T06:05:43;6;5;
47808;PMS5003;33573;38.790;-77.084;2023-11-21T06:08:09;5;5;
47808;PMS5003;33573;38.790;-77.084;2023-11-21T06:10:34;5;5;
47808;PMS5003;33573;38.790;-77.084;2023-11-21T06:13:00;5;4;
47808;PMS5003;33573;38.790;-77.084;2023-11-21T06:15:25;7;6;
47808;PMS5003;33573;38.790;-77.084;2023-11-21T06:17:51;8;5;
47808;PMS5003;33573;38.790;-77.084;2023-11-21T06:20:16;6;6;
47808;PMS5003;33573;38.790;-77.084;2023-11-21T06:22:42;9;7;
47808;PMS5003;33573;38.790;-77.084;2023-11-21T06:25:08;7;6;
47808;PMS5003;33573;38.790;-77.084;2023-11-21T06:27:33;9;7;
47808;PMS5003;33573;38.790;-77.084;2023-11-21T06:29:58;5;5;
47808;PMS5003;33573;38.790;-77.084;2023-11-21T06:32:23;5;5;
47808;PMS5003;33573;38.790;-77.084;2023-11-21T06:34:49;7;6;
47808;PMS5003;33573;38.790;-77.084;2023-11-21T06:37:14;6;5;
47808;PMS5003;33573;38.790;-77.084;2023-11-21T06:39:40;7;7;
47808;PMS5003;33573;38.790;-77.084;2023-11-21T06:42:05;7;6;
47808;PMS5003;33573;38.790;-77.084;2023-11-21T06:44:31;10;7;
47808;PMS5003;33573;38.790;-77.084;2023-11-21T06:46:56;6;6;
47808;PMS5003;33573;38.790;-77.084;2023-11-21T06:49:22;9;7;
47808;PMS5003;33573;38.790;-77.084;2023-11-21T06:51:47;8;7;
47808;PMS5003;33573;38.790;-77.084;2023-11-21T06:54:13;7;5;
47808;PMS5003;33573;38.790;-77.084;2023-11-21T06:56:38;7;7;
47808;PMS5003;33573;38.790;-77.084;2023-11-21T06:59:04;7;6;
47808;PMS5003;33573;38.790;-77.084;2023-11-21T07:01:29;8;7;
47808;PMS5003;33573;38.790;-77.084;2023-11-21T07:03:54;7;7;
47808;PMS5003;33573;38.790;-77.084;2023-11-21T07:06:20;7;7;
47808;PMS5003;33573;38.790;-77.084;2023-11-21T07:08:45;8;7;
47808;PMS5003;33573;38.790;-77.084;2023-11-21T07:11:11;6;6;
47808;PMS5003;33573;38.790;-77.084;2023-11-21T07:13:36;6;6;
47808;PMS5003;33573;38.790;-77.084;2023-11-21T07:16:02;7;6;
47808;PMS5003;33573;38.790;-77.084;2023-11-21T07:18:27;6;6;
47808;PMS5003;33573;38.790;-77.084;2023-11-21T07:20:53;6;6;
47808;PMS5003;33573;38.790;-77.084;2023-11-21T07:23:18;6;6;
47808;PMS5003;33573;38.790;-77.084;2023-11-21T07:25:43;6;6;
47808;PMS5003;33573;38.790;-77.084;2023-11-21T07:28:09;5;5;
47808;PMS5003;33573;38.790;-77.084;2023-11-21T07:30:34;6;6;
47808;PMS5003;33573;38.790;-77.084;2023-11-21T07:33:00;7;5;
47808;PMS5003;33573;38.790;-77.084;2023-11-21T07:35:25;3;3;
47808;PMS5003;33573;38.790;-77.084;2023-11-21T07:37:51;5;5;
47808;PMS5003;33573;38.790;-77.084;2023-11-21T07:40:16;5;5;
47808;PMS5003;33573;38.790;-77.084;2023-11-21T07:42:42;6;4;
47808;PMS5003;33573;38.790;-77.084;2023-11-21T07:45:07;5;5;
47808;PMS5003;33573;38.790;-77.084;2023-11-21T07:47:33;7;7;
47808;PMS5003;33573;38.790;-77.084;2023-11-21T07:49:58;6;6;
47808;PMS5003;33573;38.790;-77.084;2023-11-21T07:52:23;4;3;
47808;PMS5003;33573;38.790;-77.084;2023-11-21T07:54:49;5;5;
47808;PMS5003;33573;38.790;-77.084;2023-11-21T07:57:14;7;5;
47808;PMS5003;33573;38.790;-77.084;2023-11-21T07:59:40;5;4;
47808;PMS5003;33573;38.790;-77.084;2023-11-21T08:02:05;5;5;
47808;PMS5003;33573;38.790;-77.084;2023-11-21T08:04:31;5;5;
47808;PMS5003;33573;38.790;-77.084;2023-11-21T08:06:56;6;6;
47808;PMS5003;33573;38.790;-77.084;2023-11-21T08:09:21;5;5;
47808;PMS5003;33573;38.790;-77.084;2023-11-21T08:11:47;4;4;
47808;PMS5003;33573;38.790;-77.084;2023-11-21T08:14:12;5;5;
47808;PMS5003;33573;38.790;-77.084;2023-11-21T08:16:38;5;5;
47808;PMS5003;33573;38.790;-77.084;2023-11-21T08:19:03;5;5;
47808;PMS5003;33573;38.790;-77.084;2023-11-21T08:21:29;4;4;
47808;PMS5003;33573;38.790;-77.084;2023-11-21T08:23:54;4;3;
47808;PMS5003;33573;38.790;-77.084;2023-11-21T08:26:20;4;4;
47808;PMS5003;33573;38.790;-77.084;2023-11-21T08:28:45;6;6;
47808;PMS5003;33573;38.790;-77.084;2023-11-21T08:31:11;7;4;
47808;PMS5003;33573;38.790;-77.084;2023-11-21T08:33:36;4;4;
47808;PMS5003;33573;38.790;-77.084;2023-11-21T08:36:06;4;4;
47808;PMS5003;33573;38.790;-77.084;2023-11-21T08:38:27;3;3;
47808;PMS5003;33573;38.790;-77.084;2023-11-21T08:40:52;5;5;
47808;PMS5003;33573;38.790;-77.084;2023-11-21T08:43:18;4;4;
47808;PMS5003;33573;38.790;-77.084;2023-11-21T08:45:43;6;5;
47808;PMS5003;33573;38.790;-77.084;2023-11-21T08:48:09;5;5;
47808;PMS5003;33573;38.790;-77.084;2023-11-21T08:50:34;6;6;
47808;PMS5003;33573;38.790;-77.084;2023-11-21T08:52:59;3;3;
47808;PMS5003;33573;38.790;-77.084;2023-11-21T08:55:25;4;4;
47808;PMS5003;33573;38.790;-77.084;2023-11-21T08:57:50;6;6;
47808;PMS5003;33573;38.790;-77.084;2023-11-21T09:00:16;4;4;
47808;PMS5003;33573;38.790;-77.084;2023-11-21T09:02:41;4;4;
47808;PMS5003;33573;38.790;-77.084;2023-11-21T09:05:07;4;4;
47808;PMS5003;33573;38.790;-77.084;2023-11-21T09:07:32;4;4;
47808;PMS5003;33573;38.790;-77.084;2023-11-21T09:09:57;2;2;
47808;PMS5003;33573;38.790;-77.084;2023-11-21T09:12:23;4;4;
47808;PMS5003;33573;38.790;-77.084;2023-11-21T09:14:48;5;4;
47808;PMS5003;33573;38.790;-77.084;2023-11-21T09:17:14;5;5;
47808;PMS5003;33573;38.790;-77.084;2023-11-21T09:19:39;4;4;
47808;PMS5003;33573;38.790;-77.084;2023-11-21T09:22:05;5;5;
47808;PMS5003;33573;38.790;-77.084;2023-11-21T09:24:30;3;3;
47808;PMS5003;33573;38.790;-77.084;2023-11-21T09:26:56;5;4;
47808;PMS5003;33573;38.790;-77.084;2023-11-21T09:29:21;4;4;
47808;PMS5003;33573;38.790;-77.084;2023-11-21T09:31:46;5;5;
47808;PMS5003;33573;38.790;-77.084;2023-11-21T09:34:12;4;4;
47808;PMS5003;33573;38.790;-77.084;2023-11-21T09:36:37;4;4;
47808;PMS5003;33573;38.790;-77.084;2023-11-21T09:39:03;7;5;
47808;PMS5003;33573;38.790;-77.084;2023-11-21T09:41:30;4;4;
47808;PMS5003;33573;38.790;-77.084;2023-11-21T09:43:54;6;4;
47808;PMS5003;33573;38.790;-77.084;2023-11-21T09:46:19;4;4;
47808;PMS5003;33573;38.790;-77.084;2023-11-21T09:48:45;5;5;
47808;PMS5003;33573;38.790;-77.084;2023-11-21T09:51:10;4;3;
47808;PMS5003;33573;38.790;-77.084;2023-11-21T09:53:36;4;4;
47808;PMS5003;33573;38.790;-77.084;2023-11-21T09:56:01;5;5;
47808;PMS5003;33573;38.790;-77.084;2023-11-21T09:58:27;4;4;
47808;PMS5003;33573;38.790;-77.084;2023-11-21T10:00:53;5;5;
47808;PMS5003;33573;38.790;-77.084;2023-11-21T10:03:17;3;3;
47808;PMS5003;33573;38.790;-77.084;2023-11-21T10:05:43;2;2;
47808;PMS5003;33573;38.790;-77.084;2023-11-21T10:08:09;3;3;
47808;PMS5003;33573;38.790;-77.084;2023-11-21T10:10:34;4;4;
47808;PMS5003;33573;38.790;-77.084;2023-11-21T10:13:01;4;4;
47808;PMS5003;33573;38.790;-77.084;2023-11-21T10:15:25;3;3;
47808;PMS5003;33573;38.790;-77.084;2023-11-21T10:17:50;4;4;
47808;PMS5003;33573;38.790;-77.084;2023-11-21T10:20:16;4;3;
47808;PMS5003;33573;38.790;-77.084;2023-11-21T10:22:41;4;3;
47808;PMS5003;33573;38.790;-77.084;2023-11-21T10:25:07;3;3;
47808;PMS5003;33573;38.790;-77.084;2023-11-21T10:27:32;2;2;
47808;PMS5003;33573;38.790;-77.084;2023-11-21T10:29:57;1;1;
47808;PMS5003;33573;38.790;-77.084;2023-11-21T10:32:25;2;2;
47808;PMS5003;33573;38.790;-77.084;2023-11-21T10:37:14;2;2;
47808;PMS5003;33573;38.790;-77.084;2023-11-21T10:39:39;1;1;
47808;PMS5003;33573;38.790;-77.084;2023-11-21T10:42:07;3;3;
47808;PMS5003;33573;38.790;-77.084;2023-11-21T10:44:30;3;2;
47808;PMS5003;33573;38.790;-77.084;2023-11-21T10:46:55;0;0;
47808;PMS5003;33573;38.790;-77.084;2023-11-21T10:49:21;1;1;
47808;PMS5003;33573;38.790;-77.084;2023-11-21T10:51:46;2;2;
47808;PMS5003;33573;38.790;-77.084;2023-11-21T10:54:12;1;1;
47808;PMS5003;33573;38.790;-77.084;2023-11-21T10:56:37;4;2;
47808;PMS5003;33573;38.790;-77.084;2023-11-21T10:59:03;1;1;
47808;PMS5003;33573;38.790;-77.084;2023-11-21T11:01:28;0;0;
47808;PMS5003;33573;38.790;-77.084;2023-11-21T11:03:54;1;1;
47808;PMS5003;33573;38.790;-77.084;2023-11-21T11:06:19;1;0;
47808;PMS5003;33573;38.790;-77.084;2023-11-21T11:08:44;0;0;
47808;PMS5003;33573;38.790;-77.084;2023-11-21T11:11:10;0;0;
47808;PMS5003;33573;38.790;-77.084;2023-11-21T11:13:35;1;1;
47808;PMS5003;33573;38.790;-77.084;2023-11-21T11:16:06;1;1;
47808;PMS5003;33573;38.790;-77.084;2023-11-21T11:18:27;1;1;
47808;PMS5003;33573;38.790;-77.084;2023-11-21T11:20:52;2;1;
47808;PMS5003;33573;38.790;-77.084;2023-11-21T11:23:24;1;1;
47808;PMS5003;33573;38.790;-77.084;2023-11-21T11:25:47;4;3;
47808;PMS5003;33573;38.790;-77.084;2023-11-21T11:28:10;4;4;
47808;PMS5003;33573;38.790;-77.084;2023-11-21T11:30:37;4;4;
47808;PMS5003;33573;38.790;-77.084;2023-11-21T11:33:02;2;2;
47808;PMS5003;33573;38.790;-77.084;2023-11-21T11:35:26;5;4;
47808;PMS5003;33573;38.790;-77.084;2023-11-21T11:37:50;4;4;
47808;PMS5003;33573;38.790;-77.084;2023-11-21T11:40:15;5;4;
47808;PMS5003;33573;38.790;-77.084;2023-11-21T11:47:32;1;1;
47808;PMS5003;33573;38.790;-77.084;2023-11-21T11:49:59;1;1;
47808;PMS5003;33573;38.790;-77.084;2023-11-21T11:54:49;2;2;
47808;PMS5003;33573;38.790;-77.084;2023-11-21T11:57:13;0;0;
47808;PMS5003;33573;38.790;-77.084;2023-11-21T12:02:04;1;1;
47808;PMS5003;33573;38.790;-77.084;2023-11-21T12:04:30;3;3;
47808;PMS5003;33573;38.790;-77.084;2023-11-21T12:06:55;2;2;
47808;PMS5003;33573;38.790;-77.084;2023-11-21T12:09:20;1;1;
47808;PMS5003;33573;38.790;-77.084;2023-11-21T12:11:46;2;2;
47808;PMS5003;33573;38.790;-77.084;2023-11-21T12:14:11;1;1;
47808;PMS5003;33573;38.790;-77.084;2023-11-21T12:16:37;2;1;
47808;PMS5003;33573;38.790;-77.084;2023-11-21T12:19:02;0;0;
47808;PMS5003;33573;38.790;-77.084;2023-11-21T12:21:28;1;1;
47808;PMS5003;33573;38.790;-77.084;2023-11-21T12:23:53;3;1;
47808;PMS5003;33573;38.790;-77.084;2023-11-21T12:26:24;2;2;
47808;PMS5003;33573;38.790;-77.084;2023-11-21T12:28:46;0;0;
47808;PMS5003;33573;38.790;-77.084;2023-11-21T12:31:09;1;1;
47808;PMS5003;33573;38.790;-77.084;2023-11-21T12:33:35;1;1;
47808;PMS5003;33573;38.790;-77.084;2023-11-21T12:36:00;0;0;
47808;PMS5003;33573;38.790;-77.084;2023-11-21T12:38:26;2;2;
47808;PMS5003;33573;38.790;-77.084;2023-11-21T12:40:51;1;1;
47808;PMS5003;33573;38.790;-77.084;2023-11-21T12:43:17;2;2;
47808;PMS5003;33573;38.790;-77.084;2023-11-21T12:45:42;1;1;
47808;PMS5003;33573;38.790;-77.084;2023-11-21T12:48:07;4;3;
47808;PMS5003;33573;38.790;-77.084;2023-11-21T12:50:33;1;1;
47808;PMS5003;33573;38.790;-77.084;2023-11-21T12:52:59;1;1;
47808;PMS5003;33573;38.790;-77.084;2023-11-21T12:55:24;1;1;
47808;PMS5003;33573;38.790;-77.084;2023-11-21T12:57:50;1;1;
47808;PMS5003;33573;38.790;-77.084;2023-11-21T13:00:15;1;1;
47808;PMS5003;33573;38.790;-77.084;2023-11-21T13:02:41;0;0;
47808;PMS5003;33573;38.790;-77.084;2023-11-21T13:05:06;1;1;
47808;PMS5003;33573;38.790;-77.084;2023-11-21T13:07:31;2;1;
47808;PMS5003;33573;38.790;-77.084;2023-11-21T13:09:56;1;1;
47808;PMS5003;33573;38.790;-77.084;2023-11-21T13:12:23;0;0;
47808;PMS5003;33573;38.790;-77.084;2023-11-21T13:14:47;1;1;
47808;PMS5003;33573;38.790;-77.084;2023-11-21T13:17:13;2;2;
47808;PMS5003;33573;38.790;-77.084;2023-11-21T13:19:38;0;0;
47808;PMS5003;33573;38.790;-77.084;2023-11-21T13:22:04;1;0;
47808;PMS5003;33573;38.790;-77.084;2023-11-21T13:24:29;0;0;
47808;PMS5003;33573;38.790;-77.084;2023-11-21T13:26:55;1;1;
47808;PMS5003;33573;38.790;-77.084;2023-11-21T13:29:20;0;0;
47808;PMS5003;33573;38.790;-77.084;2023-11-21T13:31:46;1;1;
47808;PMS5003;33573;38.790;-77.084;2023-11-21T13:34:11;2;2;
47808;PMS5003;33573;38.790;-77.084;2023-11-21T13:36:37;3;1;
47808;PMS5003;33573;38.790;-77.084;2023-11-21T13:39:02;0;0;
47808;PMS5003;33573;38.790;-77.084;2023-11-21T13:41:27;1;1;
47808;PMS5003;33573;38.790;-77.084;2023-11-21T13:43:53;0;0;
47808;PMS5003;33573;38.790;-77.084;2023-11-21T13:46:18;1;1;
47808;PMS5003;33573;38.790;-77.084;2023-11-21T13:48:44;0;0;
47808;PMS5003;33573;38.790;-77.084;2023-11-21T13:51:10;0;0;
47808;PMS5003;33573;38.790;-77.084;2023-11-21T13:53:34;1;1;
47808;PMS5003;33573;38.790;-77.084;2023-11-21T13:56:00;1;1;
47808;PMS5003;33573;38.790;-77.084;2023-11-21T13:58:25;0;0;
47808;PMS5003;33573;38.790;-77.084;2023-11-21T14:00:51;0;0;
47808;PMS5003;33573;38.790;-77.084;2023-11-21T14:03:16;1;1;
47808;PMS5003;33573;38.790;-77.084;2023-11-21T14:05:42;1;1;
47808;PMS5003;33573;38.790;-77.084;2023-11-21T14:08:07;1;1;
47808;PMS5003;33573;38.790;-77.084;2023-11-21T14:10:33;1;1;
47808;PMS5003;33573;38.790;-77.084;2023-11-21T14:12:58;1;1;
47808;PMS5003;33573;38.790;-77.084;2023-11-21T14:15:23;1;1;
47808;PMS5003;33573;38.790;-77.084;2023-11-21T14:17:49;1;1;
47808;PMS5003;33573;38.790;-77.084;2023-11-21T14:20:14;1;1;
47808;PMS5003;33573;38.790;-77.084;2023-11-21T14:22:40;0;0;
47808;PMS5003;33573;38.790;-77.084;2023-11-21T14:25:05;1;1;
47808;PMS5003;33573;38.790;-77.084;2023-11-21T14:27:31;1;1;
47808;PMS5003;33573;38.790;-77.084;2023-11-21T14:29:56;0;0;
47808;PMS5003;33573;38.790;-77.084;2023-11-21T14:32:21;1;0;
47808;PMS5003;33573;38.790;-77.084;2023-11-21T14:34:47;2;0;
47808;PMS5003;33573;38.790;-77.084;2023-11-21T14:37:12;0;0;
47808;PMS5003;33573;38.790;-77.084;2023-11-21T14:39:38;0;0;
47808;PMS5003;33573;38.790;-77.084;2023-11-21T14:42:03;0;0;
47808;PMS5003;33573;38.790;-77.084;2023-11-21T14:44:29;0;0;
47808;PMS5003;33573;38.790;-77.084;2023-11-21T14:46:54;2;0;
47808;PMS5003;33573;38.790;-77.084;2023-11-21T14:49:19;1;0;
47808;PMS5003;33573;38.790;-77.084;2023-11-21T14:51:46;1;1;
47808;PMS5003;33573;38.790;-77.084;2023-11-21T14:54:10;1;1;
47808;PMS5003;33573;38.790;-77.084;2023-11-21T14:56:36;1;1;
47808;PMS5003;33573;38.790;-77.084;2023-11-21T14:59:01;0;0;
47808;PMS5003;33573;38.790;-77.084;2023-11-21T15:01:27;2;2;
47808;PMS5003;33573;38.790;-77.084;2023-11-21T15:03:52;0;0;
47808;PMS5003;33573;38.790;-77.084;2023-11-21T15:06:17;0;0;
47808;PMS5003;33573;38.790;-77.084;2023-11-21T15:08:43;1;0;
47808;PMS5003;33573;38.790;-77.084;2023-11-21T15:11:08;1;1;
47808;PMS5003;33573;38.790;-77.084;2023-11-21T15:13:34;1;1;
47808;PMS5003;33573;38.790;-77.084;2023-11-21T15:15:59;1;1;
47808;PMS5003;33573;38.790;-77.084;2023-11-21T15:18:25;0;0;
47808;PMS5003;33573;38.790;-77.084;2023-11-21T15:20:50;1;1;
47808;PMS5003;33573;38.790;-77.084;2023-11-21T15:23:15;1;1;
47808;PMS5003;33573;38.790;-77.084;2023-11-21T15:25:41;0;0;
47808;PMS5003;33573;38.790;-77.084;2023-11-21T15:28:06;1;1;
47808;PMS5003;33573;38.790;-77.084;2023-11-21T15:30:32;1;1;
47808;PMS5003;33573;38.790;-77.084;2023-11-21T15:32:57;0;0;
47808;PMS5003;33573;38.790;-77.084;2023-11-21T15:35:23;1;1;
47808;PMS5003;33573;38.790;-77.084;2023-11-21T15:37:48;1;1;
47808;PMS5003;33573;38.790;-77.084;2023-11-21T15:40:13;1;1;
47808;PMS5003;33573;38.790;-77.084;2023-11-21T15:42:39;0;0;
47808;PMS5003;33573;38.790;-77.084;2023-11-21T15:45:05;2;2;
47808;PMS5003;33573;38.790;-77.084;2023-11-21T15:47:30;0;0;
47808;PMS5003;33573;38.790;-77.084;2023-11-21T15:49:55;0;0;
47808;PMS5003;33573;38.790;-77.084;2023-11-21T15:52:21;1;1;
47808;PMS5003;33573;38.790;-77.084;2023-11-21T15:54:46;0;0;
47808;PMS5003;33573;38.790;-77.084;2023-11-21T15:57:12;1;1;
47808;PMS5003;33573;38.790;-77.084;2023-11-21T15:59:39;0;0;
47808;PMS5003;33573;38.790;-77.084;2023-11-21T16:02:02;0;0;
47808;PMS5003;33573;38.790;-77.084;2023-11-21T16:04:28;1;1;
47808;PMS5003;33573;38.790;-77.084;2023-11-21T16:06:53;0;0;
47808;PMS5003;33573;38.790;-77.084;2023-11-21T16:09:19;1;1;
47808;PMS5003;33573;38.790;-77.084;2023-11-21T16:11:44;1;1;
47808;PMS5003;33573;38.790;-77.084;2023-11-21T16:14:09;0;0;
47808;PMS5003;33573;38.790;-77.084;2023-11-21T16:16:35;0;0;
47808;PMS5003;33573;38.790;-77.084;2023-11-21T16:19:00;0;0;